AirportContent of METAR report
LYBEMETAR LYBE 280230Z 12018KT 9999 SCT040 19/08 Q1006 NOSIG=
LYBTMETAR LYBT 280230Z 09012KT CAVOK 16/09 Q1006 NOSIG=
LYKVMETAR LYKV 280230Z 13013KT 100V160 CAVOK 19/10 Q1007 NOSIG=
LYNIMETAR LYNI 280230Z 12006KT CAVOK 18/07 Q1011 NOSIG=
LYVRMETAR LYVR 280230Z AUTO 12025G45KT CAVOK 19/05 Q1008=
LYUZMETAR LYUZ 280230Z AUTO VRB04KT 9999 SHRA NSC 12/09 Q1007=
LYPGMETAR LYPG 280230Z 13015KT 100V160 7000 RA FEW027 SCT040 OVC080 16/15 Q1008 NOSIG=
LYTVMETAR LYTV 280230Z 16010KT 9999 SCT020 BKN030 19/16 Q1007=

Data loaded: 2020-09-28 02:31:48 UTC

METAR, TAF, AIRMET, GAMET, SIGMET

Important note: MET information on these web pages are informative and restricted to aeronautical users, must not be used for any commercial purpose, and do not replace flight documentation.